Latest Weather Observations for Applethorpe

IDQ60801

Issued at 9:02 pm EST Tuesday 3 March 2015 (issued every 30 minutes, with the page automatically refreshed every 10 minutes)

About weather observations | Map of weather stations | Latest weather observations for QLD | Other Formats
Station Details ID: 041175 Name: APPLETHORPE Lat: -28.62 Lon: 151.95 Height: 871.6 m
Data from the previous 72 hours. | See also: Recent months at Applethorpe
Date/Time
EST
Temp
°C
App
Temp
°C
Dew
Point
Rel
Hum
%
Delta-T
°C
Wind Press
QNH
hPa
Press
MSL
hPa
Rain
since 9 am
mm
Dir
 
Spd
km/h
Gust
km/h
Spd
kts
Gust
kts
03/09:00pm 19.2 21.2 17.8 92 0.9 ENE 4 7 2 4 1019.5 1015.6 0.0
03/08:30pm 19.4 21.3 17.7 90 1.1 ENE 4 9 2 5 1019.3 1015.3 0.0
03/08:00pm 19.7 21.7 17.8 89 1.2 ENE 4 7 2 4 1018.9 1014.9 0.0
03/07:30pm 20.2 22.2 17.9 87 1.5 ENE 4 9 2 5 1018.7 1014.7 0.0
03/07:00pm 20.9 22.9 17.8 82 2.0 ENE 4 9 2 5 1018.2 1014.2 0.0
03/06:30pm 21.7 23.1 17.8 78 2.5 ENE 7 13 4 7 1017.9 1013.9 0.0
03/06:00pm 22.9 24.3 17.9 73 3.2 ENE 7 15 4 8 1017.7 1013.7 0.0
03/05:30pm 24.4 26.1 18.1 68 4.1 ENE 6 15 3 8 1017.4 1013.3 0.0
03/05:00pm 25.1 26.6 18.0 64 4.6 E 7 13 4 7 1017.2 1013.1 0.0
03/04:30pm 26.0 27.7 18.6 63 4.9 NE 7 15 4 8 1016.9 1012.9 0.0
03/04:00pm 26.6 28.0 18.6 61 5.3 ENE 9 19 5 10 1016.7 1012.7 0.0
03/03:30pm 27.0 29.3 18.5 59 5.6 E 4 9 2 5 1016.7 1012.7 0.0
03/03:00pm 26.1 27.7 18.2 61 5.2 E 7 13 4 7 1016.9 1012.9 0.0
03/02:30pm 26.6 28.1 17.7 58 5.8 E 6 11 3 6 1017.2 1013.1 0.0
03/02:00pm 27.1 28.8 18.5 59 5.7 NE 7 13 4 7 1017.4 1013.3 0.0
03/01:30pm 25.1 25.4 17.0 60 5.2 NNE 11 20 6 11 1017.9 1013.9 0.0
03/01:00pm 26.4 28.4 17.8 59 5.6 ENE 4 7 2 4 1018.2 1014.2 0.0
03/12:30pm 24.6 25.5 16.6 61 5.1 NE 7 13 4 7 1018.7 1014.7 0.0
03/12:00pm 24.3 25.2 16.0 60 5.2 NE 6 13 3 7 1019.0 1015.0 0.0
03/11:30am 23.9 24.8 16.7 64 4.6 NNE 7 13 4 7 1019.2 1015.2 0.0
03/11:00am 24.0 25.5 16.6 63 4.7 NE 4 7 2 4 1019.5 1015.6 0.0
03/10:30am 22.9 23.6 15.5 63 4.6 E 6 9 3 5 1020.2 1016.2 0.0
03/10:00am 22.3 23.0 15.5 65 4.2 ESE 6 9 3 5 1020.2 1016.2 0.0
03/09:30am 21.0 21.6 15.3 70 3.5 ENE 6 13 3 7 1020.2 1016.2 0.0
03/09:00am 19.9 19.9 15.2 74 2.9 E 9 15 5 8 1020.0 1016.0 0.0
03/08:30am 18.4 18.3 14.9 80 2.1 ESE 9 17 5 9 1019.9 1015.9 0.0
03/08:00am 18.3 18.2 15.0 81 2.0 E 9 17 5 9 1019.8 1015.8 0.0
03/07:30am 17.3 17.1 14.6 84 1.6 E 9 17 5 9 1019.4 1015.4 0.0
03/07:00am 17.2 17.7 14.9 86 1.4 E 6 15 3 8 1019.1 1015.1 0.0
03/06:30am 16.7 17.0 14.9 89 1.1 E 7 15 4 8 1018.7 1014.7 0.0
03/06:00am 16.5 17.1 15.2 92 0.8 ENE 6 13 3 7 1018.5 1014.5 0.0
03/05:30am 16.2 16.7 15.0 93 0.7 E 6 11 3 6 1018.1 1014.1 0.0
03/05:00am 15.6 16.1 14.9 96 0.4 ENE 6 9 3 5 1017.9 1013.9 0.0
03/04:30am 15.4 15.8 14.7 96 0.4 E 6 9 3 5 1017.7 1013.7 0.0
03/04:00am 15.5 16.3 14.7 95 0.5 ENE 4 9 2 5 1017.8 1013.8 0.0
03/03:30am 15.8 16.6 14.8 94 0.6 ENE 4 9 2 5 1017.9 1013.9 0.0
03/03:00am 16.2 16.7 14.9 92 0.8 E 6 13 3 7 1017.9 1013.9 0.0
03/02:30am 16.8 17.1 15.1 90 1.0 ESE 7 17 4 9 1018.1 1014.1 0.0
03/02:00am 16.9 17.5 15.2 90 1.0 ESE 6 13 3 7 1018.3 1014.3 0.0
03/01:30am 16.9 17.5 15.2 90 1.0 ESE 6 15 3 8 1018.6 1014.6 0.0
03/01:00am 17.2 17.7 15.6 90 1.0 ESE 7 15 4 8 1019.0 1015.0 0.0
03/12:30am 17.3 17.4 15.5 89 1.1 ESE 9 19 5 10 1019.2 1015.2 0.0
03/12:00am 17.4 17.5 15.6 89 1.1 E 9 19 5 10 1019.5 1015.6 0.0
 
Date/Time
EST
Temp
°C
App
Temp
°C
Dew
Point
Rel
Hum
%
Delta-T
°C
Wind Press
QNH
hPa
Press
MSL
hPa
Rain
since 9 am
mm
Dir
 
Spd
km/h
Gust
km/h
Spd
kts
Gust
kts
02/11:30pm 17.7 17.9 15.7 88 1.2 E 9 19 5 10 1019.7 1015.7 0.0
02/11:00pm 17.8 18.0 15.7 87 1.3 ESE 9 19 5 10 1019.8 1015.8 0.0
02/10:30pm 17.8 17.2 15.7 87 1.3 ESE 13 24 7 13 1019.7 1015.7 0.0
02/10:00pm 18.1 17.6 16.0 87 1.3 ESE 13 24 7 13 1019.5 1015.6 0.0
02/09:30pm 18.1 18.0 16.0 87 1.3 E 11 24 6 13 1019.7 1015.7 0.0
02/09:00pm 17.8 17.7 16.0 89 1.1 ESE 11 24 6 13 1019.4 1015.4 0.0
02/08:30pm 18.2 18.1 15.9 86 1.4 E 11 22 6 12 1019.4 1015.4 0.0
02/08:00pm 18.5 18.8 15.9 85 1.6 ESE 9 15 5 8 1019.1 1015.1 0.0
02/07:30pm 18.4 17.9 16.0 86 1.5 ESE 13 24 7 13 1018.6 1014.6 0.0
02/07:00pm 18.6 18.6 16.2 86 1.5 E 11 26 6 14 1018.3 1014.3 0.0
02/06:30pm 19.1 19.2 16.4 84 1.7 ESE 11 28 6 15 1017.9 1013.9 0.0
02/06:00pm 20.1 20.0 16.9 82 2.0 ESE 13 26 7 14 1017.5 1013.5 0.0
02/05:30pm 21.0 21.8 17.4 80 2.3 E 9 19 5 10 1017.3 1013.2 0.0
02/05:00pm 22.4 22.8 17.2 72 3.3 E 11 24 6 13 1016.6 1012.6 0.0
02/04:30pm 24.2 25.0 17.2 65 4.5 E 9 17 5 9 1016.4 1012.3 0.0
02/04:00pm 24.8 25.2 16.3 59 5.4 E 9 20 5 11 1016.5 1012.5 0.0
02/03:30pm 24.6 24.5 15.9 58 5.5 E 11 20 6 11 1016.3 1012.2 0.0
02/03:00pm 24.2 24.1 15.9 59 5.2 ESE 11 22 6 12 1016.3 1012.2 0.0
02/02:30pm 24.3 24.0 16.4 61 5.0 E 13 24 7 13 1016.6 1012.6 0.0
02/02:00pm 24.7 25.0 17.1 62 4.9 E 11 22 6 12 1016.8 1012.8 0.0
02/01:30pm 23.9 24.3 17.2 66 4.3 E 11 19 6 10 1017.2 1013.1 0.0
02/01:00pm 23.3 23.1 16.7 66 4.2 ESE 13 20 7 11 1017.6 1013.6 0.0
02/12:30pm 24.3 24.4 16.4 61 5.0 ESE 11 24 6 13 1017.7 1013.7 0.0
02/12:00pm 24.3 24.9 16.9 63 4.7 ESE 9 19 5 10 1017.9 1013.9 0.0
02/11:30am 23.9 24.7 17.2 66 4.3 ESE 9 17 5 9 1018.1 1014.1 0.0
02/11:00am 23.2 23.0 16.6 66 4.2 ESE 13 19 7 10 1018.3 1014.3 0.0
02/10:30am 21.8 22.2 16.4 71 3.4 ESE 9 17 5 9 1018.6 1014.6 0.0
02/10:00am 22.0 22.5 16.6 71 3.4 ESE 9 17 5 9 1018.7 1014.7 0.0
02/09:30am 21.6 21.6 16.2 71 3.4 ESE 11 26 6 14 1018.9 1014.9 0.0
02/09:00am 21.9 21.9 16.3 70 3.5 E 11 24 6 13 1018.6 1014.6 0.0
02/08:30am 21.4 21.9 16.5 73 3.1 E 9 15 5 8 1018.1 1014.1 0.0
02/08:00am 20.2 20.0 15.8 76 2.7 ESE 11 28 6 15 1017.6 1013.6 0.0
02/07:30am 18.6 19.4 16.3 86 1.4 E 7 17 4 9 1017.5 1013.5 0.0
02/07:00am 18.3 18.7 16.4 89 1.2 ESE 9 15 5 8 1017.5 1013.5 0.0
02/06:30am 17.9 18.7 16.3 90 1.0 E 7 19 4 10 1017.2 1013.1 0.0
02/06:00am 17.8 18.8 16.3 91 0.9 E 6 13 3 7 1016.7 1012.7 0.0
02/05:30am 17.6 19.0 16.3 92 0.8 E 4 11 2 6 1016.5 1012.5 0.0
02/05:00am 17.1 18.4 16.1 94 0.6 E 4 7 2 4 1016.1 1012.0 0.0
02/04:30am 17.3 18.0 16.0 92 0.8 ESE 7 13 4 7 1015.6 1011.6 0.0
02/04:00am 16.9 18.3 16.3 96 0.4 E 4 9 2 5 1015.3 1011.2 0.0
02/03:30am 16.7 18.4 16.2 97 0.3 ENE 2 6 1 3 1015.2 1011.1 0.0
02/03:00am 16.3 17.9 16.0 98 0.2 ENE 2 4 1 2 1014.9 1010.8 0.0
02/02:30am 16.5 18.5 16.0 97 0.3 CALM 0 0 0 0 1014.6 1010.6 0.0
02/02:00am 16.8 18.9 16.2 96 0.4 CALM 0 0 0 0 1014.5 1010.5 0.0
02/01:30am 17.2 19.1 16.6 96 0.4 NNE 2 6 1 3 1014.6 1010.6 0.0
02/01:00am 16.9 18.8 16.6 98 0.2 NE 2 4 1 2 1014.6 1010.6 0.0
02/12:30am 17.1 19.3 16.6 97 0.3 CALM 0 0 0 0 1015.0 1010.9 0.0
02/12:00am 16.8 19.0 16.5 98 0.2 CALM 0 0 0 0 1015.0 1010.9 0.0
 
Date/Time
EST
Temp
°C
App
Temp
°C
Dew
Point
Rel
Hum
%
Delta-T
°C
Wind Press
QNH
hPa
Press
MSL
hPa
Rain
since 9 am
mm
Dir
 
Spd
km/h
Gust
km/h
Spd
kts
Gust
kts
01/11:30pm 16.9 19.1 16.4 97 0.3 CALM 0 0 0 0 1015.0 1010.9 0.0
01/11:00pm 17.4 19.7 16.8 96 0.4 CALM 0 0 0 0 1015.2 1011.1 0.0
01/10:30pm 17.8 20.2 17.0 95 0.5 CALM 0 0 0 0 1015.2 1011.1 0.0
01/10:00pm 17.8 20.3 17.2 96 0.4 CALM 0 0 0 0 1015.3 1011.2 0.0
01/09:30pm 18.6 21.1 17.3 92 0.8 CALM 0 0 0 0 1015.0 1010.9 0.0
01/09:00pm 18.7 21.3 17.4 92 0.8 CALM 0 0 0 0 1014.8 1010.7 0.0
01/08:30pm 19.0 21.6 17.6 92 0.9 CALM 0 0 0 0 1014.5 1010.5 0.0
01/08:00pm 19.4 22.3 18.3 93 0.7 CALM 0 0 0 0 1014.1 1010.0 0.0
01/07:30pm 19.9 22.7 18.0 89 1.2 CALM 0 0 0 0 1013.7 1009.6 0.0
01/07:00pm 21.5 24.4 18.3 82 2.1 CALM 0 0 0 0 1013.1 1009.0 0.0
01/06:30pm 23.2 25.8 17.6 71 3.6 CALM 0 0 0 0 1012.6 1008.5 0.0
01/06:00pm 24.5 27.0 17.2 63 4.7 CALM 0 0 0 0 1012.5 1008.4 0.0
01/05:30pm 24.2 26.5 16.8 63 4.7 CALM 0 0 0 0 1012.5 1008.4 0.0
01/05:00pm 24.6 25.5 16.2 59 5.3 WNW 6 9 3 5 1012.4 1008.3 0.0
01/04:30pm 24.4 25.9 16.7 62 4.9 WSW 4 9 2 5 1012.1 1008.0 0.0
01/04:00pm 24.3 25.7 16.4 61 5.0 WNW 4 7 2 4 1012.0 1007.9 0.0
01/03:30pm 24.7 25.0 16.0 58 5.5 W 9 15 5 8 1012.3 1008.1 0.0
01/03:00pm 24.6 24.9 17.0 62 4.9 WSW 11 17 6 9 1012.7 1008.6 0.0
01/02:30pm 24.7 24.9 16.7 61 5.1 WSW 11 17 6 9 1013.0 1008.9 0.0
01/02:00pm 25.6 26.5 16.7 58 5.7 WSW 7 17 4 9 1013.1 1009.0 0.0
01/01:30pm 26.4 27.3 16.0 52 6.6 W 6 13 3 7 1013.5 1009.4 0.0
01/01:00pm 25.9 25.8 16.0 54 6.3 W 11 17 6 9 1013.8 1009.7 0.0
01/12:30pm 26.3 27.2 16.6 55 6.2 WSW 7 11 4 6 1014.0 1009.9 0.0
01/12:00pm 26.0 27.6 16.8 57 5.9 W 4 7 2 4 1014.3 1010.2 0.0
01/11:30am 25.7 27.6 16.6 57 5.8 NW 2 9 1 5 1014.4 1010.4 0.0
01/11:00am 25.0 25.8 16.3 58 5.5 NW 7 20 4 11 1014.8 1010.7 0.0
01/10:30am 24.8 26.2 16.5 60 5.3 NNE 4 11 2 6 1015.1 1011.0 0.0
01/10:00am 23.8 24.7 16.0 61 4.9 NNW 6 11 3 6 1015.4 1011.4 0.0
01/09:30am 23.3 25.0 17.2 68 3.9 NNE 4 7 2 4 1015.3 1010.6 0.0
01/09:00am 22.1 23.8 17.1 73 3.2 NE 4 7 2 4 1015.3 1010.6 1.8
01/08:30am 20.8 22.0 16.8 78 2.5 NNE 6 11 3 6 1015.3 1010.6 1.8
01/08:00am 20.0 21.3 17.2 84 1.8 NNE 6 9 3 5 1015.0 1010.3 1.8
01/07:30am 19.0 20.2 16.9 88 1.3 NE 6 9 3 5 1014.9 1010.2 1.8
01/07:00am 18.1 19.7 16.8 92 0.8 NNE 4 6 2 3 1014.6 1010.0 1.8
01/06:30am 17.4 19.3 16.8 96 0.4 ENE 2 6 1 3 1014.5 1009.9 1.8
01/06:00am 17.3 18.9 16.8 97 0.3 NE 4 7 2 4 1014.3 1009.6 1.8
01/05:30am 17.3 18.9 16.8 97 0.3 NNE 4 7 2 4 1014.0 1009.3 1.8
01/05:00am 17.3 18.8 16.7 96 0.4 NE 4 7 2 4 1013.7 1009.0 1.8
01/04:30am 17.5 19.4 16.7 95 0.5 NE 2 6 1 3 1013.6 1008.9 1.8
01/04:00am 18.0 20.1 17.2 95 0.5 NE 2 6 1 3 1013.5 1008.8 1.8
01/03:30am 18.1 19.9 17.3 95 0.5 NE 4 6 2 3 1013.5 1008.8 1.8
01/03:00am 18.1 20.3 17.5 96 0.4 ENE 2 7 1 4 1013.6 1008.9 1.8
01/02:30am 18.0 19.8 17.4 96 0.4 ENE 4 7 2 4 1013.6 1008.9 1.8
01/02:00am 18.0 19.8 17.4 96 0.4 ENE 4 7 2 4 1013.8 1009.1 1.8
01/01:30am 18.1 19.9 17.3 95 0.5 ENE 4 9 2 5 1013.9 1009.2 1.8
01/01:00am 18.4 19.6 17.3 93 0.7 ENE 7 13 4 7 1013.9 1009.2 1.8
01/12:30am 19.0 20.7 18.1 94 0.6 ENE 6 13 3 7 1014.4 1009.8 1.8
01/12:00am 19.4 21.2 18.2 93 0.8 NE 6 11 3 6 1014.9 1010.2 1.8
 
Date/Time
EST
Temp
°C
App
Temp
°C
Dew
Point
Rel
Hum
%
Delta-T
°C
Wind Press
QNH
hPa
Press
MSL
hPa
Rain
since 9 am
mm
Dir
 
Spd
km/h
Gust
km/h
Spd
kts
Gust
kts
28/11:30pm 19.5 21.1 18.3 93 0.8 NE 7 11 4 6 1014.9 1010.2 1.8
28/11:00pm 19.6 22.0 18.8 95 0.5 ENE 4 9 2 5 1015.1 1010.4 1.8
28/10:30pm 19.6 22.0 18.8 95 0.5 ENE 4 7 2 4 1015.0 1010.3 1.8
28/10:00pm 19.6 22.0 18.8 95 0.5 ENE 4 7 2 4 1014.9 1010.2 1.8
28/09:30pm 19.5 21.8 18.6 94 0.6 ENE 4 9 2 5 1015.1 1010.4 1.8

Other Formats:

Comma delimited format used in spreadsheet applications
http://www.bom.gov.au/fwo/IDQ60801/IDQ60801.94553.axf

JavaScript Object Notation format (JSON) in row-major order
http://www.bom.gov.au/fwo/IDQ60801/IDQ60801.94553.json